createdAt,value
2022-09-17T00:00:37.385Z,1.47
2022-09-17T00:05:39.493Z,4.10
2022-09-17T00:10:43.814Z,2.57
2022-09-17T00:15:47.427Z,3.10
2022-09-17T00:20:49.065Z,4.43
2022-09-17T00:25:50.734Z,3.53
2022-09-17T00:30:53.787Z,4.73
2022-09-17T00:35:59.676Z,3.43
2022-09-17T00:41:02.892Z,2.33
2022-09-17T00:46:16.931Z,3.10
2022-09-17T00:51:23.255Z,2.40
2022-09-17T00:56:28.333Z,5.13
2022-09-17T01:01:32.432Z,3.37
2022-09-17T01:06:41.553Z,2.73
2022-09-17T01:11:57.468Z,3.83
2022-09-17T01:17:13.380Z,2.07
2022-09-17T01:22:20.521Z,4.80
2022-09-17T01:27:58.918Z,5.03
2022-09-17T01:33:12.709Z,3.97
2022-09-17T01:38:25.493Z,6.97
2022-09-17T01:43:34.393Z,4.27
2022-09-17T01:48:41.902Z,4.93
2022-09-17T01:53:48.902Z,3.87
2022-09-17T01:58:58.082Z,3.63
2022-09-17T02:04:08.007Z,4.37
2022-09-17T02:09:15.647Z,7.00
2022-09-17T02:14:21.917Z,6.07
2022-09-17T02:19:28.166Z,3.70
2022-09-17T02:24:37.811Z,5.37
2022-09-17T02:29:43.619Z,4.80
2022-09-17T02:34:46.814Z,3.13
2022-09-17T02:39:48.617Z,3.30
2022-09-17T02:45:03.230Z,1.87
2022-09-17T02:50:24.561Z,3.80
2022-09-17T02:55:35.955Z,4.27
2022-09-17T03:00:38.026Z,4.37
2022-09-17T03:05:42.841Z,2.60
2022-09-17T03:10:44.993Z,9.13
2022-09-17T03:15:46.682Z,3.63
2022-09-17T03:20:50.040Z,1.37
2022-09-17T03:25:51.711Z,1.97
2022-09-17T03:30:54.080Z,4.23
2022-09-17T03:35:57.311Z,2.80
2022-09-17T03:40:59.551Z,4.13
2022-09-17T03:46:01.614Z,7.43
2022-09-17T03:51:06.238Z,2.30
2022-09-17T03:56:08.270Z,1.97
2022-09-17T04:01:10.239Z,5.73
2022-09-17T04:06:13.234Z,4.60
2022-09-17T04:11:14.875Z,3.27
2022-09-17T04:16:16.587Z,3.33
2022-09-17T04:21:19.649Z,5.40
2022-09-17T04:26:21.454Z,3.03
2022-09-17T04:31:23.186Z,1.97
2022-09-17T04:36:26.197Z,4.20
2022-09-17T04:41:28.071Z,3.43
2022-09-17T04:46:30.031Z,5.00
2022-09-17T04:51:33.191Z,1.47
2022-09-17T04:56:34.858Z,3.80
2022-09-17T05:01:36.731Z,4.20
2022-09-17T05:06:39.808Z,2.70
2022-09-17T05:11:41.690Z,3.60
2022-09-17T05:16:43.398Z,2.60
2022-09-17T05:21:46.548Z,2.43
2022-09-17T05:26:48.216Z,2.73
2022-09-17T05:31:49.897Z,5.50
2022-09-17T05:36:52.966Z,5.80
2022-09-17T05:41:55.418Z,9.73
2022-09-17T05:46:57.860Z,8.70
2022-09-17T05:52:04.110Z,12.63
2022-09-17T05:57:05.957Z,10.57
2022-09-17T06:02:07.647Z,8.00
2022-09-17T06:07:10.644Z,8.97
2022-09-17T06:12:12.431Z,7.97
2022-09-17T06:17:16.185Z,13.90
2022-09-17T06:22:22.510Z,11.07
2022-09-17T06:27:24.128Z,14.07
2022-09-17T06:32:26.084Z,6.70
2022-09-17T06:37:29.648Z,6.80
2022-09-17T06:42:31.499Z,9.00
2022-09-17T06:47:33.890Z,4.23
2022-09-17T06:52:36.805Z,6.73
2022-09-17T06:57:38.374Z,7.83
2022-09-17T07:02:40.017Z,9.13
2022-09-17T07:07:43.426Z,7.97
2022-09-17T07:12:49.671Z,6.30
2022-09-17T07:17:51.718Z,2.83
2022-09-17T07:22:58.062Z,4.97
2022-09-17T07:27:59.805Z,4.43
2022-09-17T07:33:01.837Z,6.17
2022-09-17T07:38:04.908Z,6.20
2022-09-17T07:43:06.566Z,3.30
2022-09-17T07:48:08.572Z,7.37
2022-09-17T07:53:11.573Z,4.70
2022-09-17T07:58:14.248Z,4.63
2022-09-17T08:03:16.890Z,4.87
2022-09-17T08:08:21.363Z,2.00
2022-09-17T08:13:23.596Z,3.87
2022-09-17T08:18:25.600Z,8.30
2022-09-17T08:23:30.237Z,6.00
2022-09-17T08:28:32.037Z,6.30
2022-09-17T08:33:36.941Z,4.13
2022-09-17T08:38:40.508Z,3.13
2022-09-17T08:43:50.052Z,1.77
2022-09-17T08:49:01.470Z,5.77
2022-09-17T08:54:13.123Z,8.60
2022-09-17T08:59:23.934Z,4.60
2022-09-17T09:04:57.044Z,7.23
2022-09-17T09:10:10.643Z,6.57
2022-09-17T09:15:25.226Z,7.30
2022-09-17T09:20:31.065Z,6.73
2022-09-17T09:25:41.109Z,4.67
2022-09-17T09:30:55.530Z,5.07
2022-09-17T09:35:57.387Z,8.27
2022-09-17T09:41:09.476Z,5.03
2022-09-17T09:46:29.327Z,4.10
2022-09-17T09:51:40.670Z,2.17
2022-09-17T09:56:54.116Z,1.53
2022-09-17T10:01:55.847Z,3.17
2022-09-17T10:07:02.535Z,2.80
2022-09-17T10:12:17.483Z,3.27
2022-09-17T10:17:23.683Z,4.13
2022-09-17T10:22:30.494Z,4.37
2022-09-17T10:27:34.637Z,3.33
2022-09-17T10:32:36.360Z,2.83
2022-09-17T10:37:46.751Z,3.73
2022-09-17T10:42:51.575Z,3.03
2022-09-17T10:47:55.370Z,6.67
2022-09-17T10:53:01.852Z,7.73
2022-09-17T10:58:18.248Z,5.87
2022-09-17T11:03:47.473Z,7.27
2022-09-17T11:09:04.029Z,6.70
2022-09-17T11:14:20.407Z,2.27
2022-09-17T11:19:33.393Z,10.30
2022-09-17T11:25:07.571Z,5.83
2022-09-17T11:30:17.083Z,4.20
2022-09-17T11:35:23.691Z,5.80
2022-09-17T11:40:34.997Z,4.53
2022-09-17T11:45:41.202Z,4.63
2022-09-17T11:50:47.363Z,2.73
2022-09-17T11:55:54.630Z,2.30
2022-09-17T12:01:06.862Z,2.73
2022-09-17T12:06:14.530Z,3.37
2022-09-17T12:11:20.512Z,6.47
2022-09-17T12:16:27.231Z,6.80
2022-09-17T12:21:33.340Z,4.20
2022-09-17T12:26:57.171Z,2.10
2022-09-17T12:32:05.635Z,3.90
2022-09-17T12:37:15.026Z,4.10
2022-09-17T12:42:32.843Z,6.17
2022-09-17T12:47:55.640Z,3.60
2022-09-17T12:53:14.322Z,5.73
2022-09-17T12:58:29.763Z,4.27
2022-09-17T13:03:40.075Z,2.07
2022-09-17T13:09:06.553Z,5.30
2022-09-17T13:14:17.299Z,2.97
2022-09-17T13:19:30.842Z,3.20
2022-09-17T13:24:34.118Z,1.87
2022-09-17T13:29:58.284Z,6.10
2022-09-17T13:35:45.158Z,2.90
2022-09-17T13:40:47.507Z,4.20
2022-09-17T13:46:22.944Z,4.77
2022-09-17T13:51:54.318Z,2.50
2022-09-17T13:57:15.109Z,2.33
2022-09-17T14:02:35.893Z,2.80
2022-09-17T14:07:47.310Z,2.97
2022-09-17T14:12:54.126Z,2.80
2022-09-17T14:17:55.759Z,3.60
2022-09-17T14:23:00.702Z,6.67
2022-09-17T14:28:09.643Z,3.20
2022-09-17T14:33:16.946Z,1.67
2022-09-17T14:38:23.417Z,1.87
2022-09-17T14:43:37.814Z,2.37
2022-09-17T14:48:39.488Z,0.80
2022-09-17T14:53:42.750Z,1.60
2022-09-17T14:58:50.885Z,1.40
2022-09-17T15:04:20.441Z,0.60
2022-09-17T15:09:26.177Z,2.40
2022-09-17T15:14:29.231Z,0.87
2022-09-17T15:19:35.130Z,0.63
2022-09-17T15:24:44.305Z,1.03
2022-09-17T15:29:51.419Z,1.23
2022-09-17T15:35:19.827Z,3.80
2022-09-17T15:40:28.409Z,2.30
2022-09-17T15:45:31.641Z,1.13
2022-09-17T15:50:34.962Z,1.47
2022-09-17T15:55:39.595Z,0.27
2022-09-17T16:00:41.209Z,0.30
2022-09-17T16:05:47.086Z,0.90
2022-09-17T16:10:50.999Z,0.93
2022-09-17T16:15:52.633Z,0.97
2022-09-17T16:20:54.705Z,1.77
2022-09-17T16:25:58.069Z,1.80
2022-09-17T16:31:00.411Z,1.37
2022-09-17T16:36:02.393Z,1.33
2022-09-17T16:41:06.500Z,1.50
2022-09-17T16:46:10.125Z,1.00
2022-09-17T16:51:13.801Z,1.17
2022-09-17T16:56:16.772Z,0.40
2022-09-17T17:01:18.455Z,2.30
2022-09-17T17:06:22.364Z,3.47
2022-09-17T17:11:25.816Z,1.43
2022-09-17T17:16:27.513Z,1.50
2022-09-17T17:21:29.112Z,7.50
2022-09-17T17:26:32.309Z,3.53
2022-09-17T17:31:33.958Z,1.73
2022-09-17T17:36:35.633Z,4.50
2022-09-17T17:41:39.054Z,4.60
2022-09-17T17:46:41.038Z,1.60
2022-09-17T17:51:42.713Z,0.80
2022-09-17T17:56:45.825Z,2.40
2022-09-17T18:01:47.555Z,1.23
2022-09-17T18:06:49.870Z,2.03
2022-09-17T18:11:52.995Z,2.57
2022-09-17T18:16:54.793Z,2.17
2022-09-17T18:21:56.601Z,2.23
2022-09-17T18:26:59.552Z,1.63
2022-09-17T18:32:01.454Z,1.23
2022-09-17T18:37:03.153Z,1.30
2022-09-17T18:42:06.594Z,3.93
2022-09-17T18:47:08.288Z,2.27
2022-09-17T18:52:10.012Z,2.63
2022-09-17T18:57:13.549Z,1.77
2022-09-17T19:02:15.208Z,3.60
2022-09-17T19:07:17.118Z,3.27
2022-09-17T19:12:20.318Z,2.37
2022-09-17T19:17:21.935Z,4.40
2022-09-17T19:22:24.024Z,1.97
2022-09-17T19:27:27.405Z,4.70
2022-09-17T19:32:30.463Z,1.87
2022-09-17T19:37:32.396Z,2.60
2022-09-17T19:42:35.514Z,3.10
2022-09-17T19:47:37.235Z,6.37
2022-09-17T19:52:40.444Z,2.00
2022-09-17T19:57:43.933Z,7.27
2022-09-17T20:02:45.590Z,2.57
2022-09-17T20:07:47.612Z,3.60
2022-09-17T20:12:50.646Z,4.23
2022-09-17T20:17:52.353Z,3.03
2022-09-17T20:22:54.216Z,2.90
2022-09-17T20:27:57.346Z,14.67
2022-09-17T20:32:58.978Z,24.93
2022-09-17T20:43:23.969Z,35.37
2022-09-17T20:48:25.637Z,28.90
2022-09-17T20:53:28.766Z,18.97
2022-09-17T20:58:33.510Z,15.17
2022-09-17T21:03:35.446Z,8.17
2022-09-17T21:08:37.378Z,6.13
2022-09-17T21:13:41.353Z,5.53
2022-09-17T21:18:43.988Z,2.77
2022-09-17T21:23:45.708Z,3.90
2022-09-17T21:28:50.643Z,5.47
2022-09-17T21:33:54.349Z,3.33
2022-09-17T21:38:57.669Z,3.17
2022-09-17T21:44:00.893Z,6.33
2022-09-17T21:49:03.891Z,2.50
2022-09-17T21:54:07.343Z,3.13
2022-09-17T21:59:13.690Z,4.00
2022-09-17T22:04:17.464Z,7.60
2022-09-17T22:09:21.249Z,4.07
2022-09-17T22:14:24.920Z,2.80
2022-09-17T22:19:26.736Z,3.27
2022-09-17T22:24:28.524Z,2.33
2022-09-17T22:29:31.838Z,1.70
2022-09-17T22:34:33.608Z,3.73
2022-09-17T22:39:35.476Z,3.07
2022-09-17T22:44:38.547Z,4.90
2022-09-17T22:49:40.218Z,6.33
2022-09-17T22:54:41.882Z,4.23
2022-09-17T22:59:44.852Z,2.33
2022-09-17T23:04:46.499Z,1.50
2022-09-17T23:09:48.572Z,4.37
2022-09-17T23:14:51.778Z,2.47
2022-09-17T23:19:53.918Z,3.57
2022-09-17T23:24:55.628Z,1.93
2022-09-17T23:29:58.753Z,1.70
2022-09-17T23:35:00.520Z,1.93
2022-09-17T23:40:05.912Z,3.53
2022-09-17T23:45:09.598Z,3.73
2022-09-17T23:50:11.627Z,3.10
2022-09-17T23:55:13.351Z,2.77
